CST,Max TemperatureF,Mean TemperatureF,Min TemperatureF,Max Dew PointF,MeanDew PointF,Min DewpointF,Max Humidity, Mean Humidity, Min Humidity, Max Sea Level PressureIn, Mean Sea Level PressureIn, Min Sea Level PressureIn, Max VisibilityMiles, Mean VisibilityMiles, Min VisibilityMiles, Max Wind SpeedMPH, Mean Wind SpeedMPH, Max Gust SpeedMPH,PrecipitationIn, CloudCover, Events, WindDirDegrees
2013-12-1,35,29,23,26,23,20,92,77,61,30.17,30.09,29.98,10,8,3,8,2,9,0.00,5,,325
2013-12-2,34,26,17,29,25,18,100,83,66,29.99,29.85,29.73,10,5,0,18,8,24,0.06,7,Fog-Snow,121
2013-12-3,32,30,27,30,28,25,92,89,85,29.84,29.76,29.70,10,4,0,22,12,30,0.33,8,Fog-Rain-Snow,94
2013-12-4,36,32,27,36,31,26,100,96,92,29.84,29.57,29.35,10,4,1,26,10,37,0.25,8,Rain,108
2013-12-5,30,16,2,29,8,-1,100,90,80,30.28,29.94,29.55,10,9,2,29,18,37,T,6,Snow,271
2013-12-6,5,0,-5,2,-4,-8,100,92,83,30.60,30.42,30.20,10,10,10,15,9,21,0.00,2,,283
2013-12-7,0,-5,-11,-4,-9,-13,92,82,71,30.73,30.65,30.59,10,10,8,14,7,18,0.00,1,,290
2013-12-8,12,3,-6,10,2,-9,92,86,80,30.61,30.27,29.93,10,3,1,12,4,14,0.10,8,Snow,82
2013-12-9,13,2,-9,10,0,-12,92,82,71,30.13,29.96,29.85,10,6,2,28,11,36,0.02,5,Snow,272
2013-12-10,6,-1,-9,1,-4,-12,92,86,79,30.22,29.93,29.75,10,6,2,22,10,28,0.02,5,Snow,218
2013-12-11,14,3,-8,-3,-11,-15,88,73,58,30.51,30.43,30.23,10,10,10,28,13,31,T,0,,279
2013-12-12,14,3,-8,7,-3,-13,87,80,73,30.42,30.26,30.18,10,7,2,14,6,20,0.02,6,Snow,250
2013-12-13,13,11,9,7,4,1,76,71,66,30.34,30.25,30.10,10,8,2,13,7,16,0.01,8,Snow,46
2013-12-14,18,14,9,14,9,2,92,83,73,30.33,30.10,29.86,10,4,1,16,6,20,0.08,8,Snow,76
2013-12-15,11,2,-8,7,-6,-13,87,73,59,30.17,30.01,29.85,10,9,2,20,10,24,T,3,Snow,299
2013-12-16,12,1,-10,9,1,-14,91,80,69,30.18,30.00,29.87,10,5,0,14,4,18,0.05,7,Fog-Snow,238
2013-12-17,28,20,11,22,14,3,92,78,64,30.06,29.85,29.75,10,6,0,20,10,28,0.07,7,Fog-Snow,268
2013-12-18,26,12,-2,12,5,-3,95,73,50,30.08,29.89,29.72,10,10,8,16,5,21,0.00,2,,144
2013-12-19,25,16,6,18,12,5,92,77,62,30.06,29.98,29.79,10,7,2,15,5,21,0.02,6,Snow,29
2013-12-20,21,19,16,18,13,10,91,82,73,30.03,29.93,29.80,10,7,2,10,4,14,0.06,8,Snow,42
2013-12-21,26,23,20,19,18,15,100,84,68,29.98,29.90,29.79,10,9,5,12,4,15,0.00,8,,28
2013-12-22,24,21,18,19,17,13,92,80,68,30.14,29.92,29.80,10,4,0,10,5,15,0.19,8,Fog-Snow,23
2013-12-23,19,10,0,16,11,-3,95,84,73,30.45,30.24,30.07,10,3,1,10,4,13,0.08,7,Snow,354
2013-12-24,14,0,-14,7,-2,-18,100,81,61,30.54,30.37,30.15,10,6,0,15,5,18,0.07,4,Fog-Snow,164
2013-12-25,16,12,7,12,7,3,91,84,76,30.21,30.08,29.98,9,4,0,15,6,20,0.02,8,Fog-Snow,222
2013-12-26,18,13,7,12,8,3,92,83,73,30.22,30.15,30.00,10,9,2,10,2,14,T,8,Snow,272
2013-12-27,33,25,17,26,19,13,100,86,72,30.22,30.09,29.91,10,5,0,15,6,20,0.00,6,Fog,195
2013-12-28,41,31,20,31,25,19,100,85,70,30.00,29.85,29.67,10,4,0,8,2,9,0.00,1,Fog,142
2013-12-29,29,9,-11,27,6,-15,92,75,58,30.27,30.00,29.71,10,9,5,22,11,32,T,5,Snow,342
2013-12-30,-3,-11,-19,-9,-17,-23,81,63,45,30.35,30.26,30.11,10,9,2,10,6,13,T,4,Snow,299
2013-12-31,-1,-8,-15,-9,-13,-17,87,70,53,30.45,30.30,30.19,10,9,7,17,7,22,T,2,,294